createdAt,value
2019-03-09T00:00:36.352Z,7.45
2019-03-09T00:05:38.039Z,7.46
2019-03-09T00:10:39.588Z,7.43
2019-03-09T00:15:41.262Z,7.43
2019-03-09T00:20:42.908Z,7.44
2019-03-09T00:26:04.156Z,7.42
2019-03-09T00:31:14.077Z,7.42
2019-03-09T00:36:15.637Z,7.45
2019-03-09T00:41:17.188Z,7.44
2019-03-09T00:46:18.953Z,7.45
2019-03-09T00:51:20.522Z,7.45
2019-03-09T00:56:22.092Z,7.48
2019-03-09T01:01:23.824Z,7.46
2019-03-09T01:06:25.345Z,7.46
2019-03-09T01:11:26.900Z,7.48
2019-03-09T01:16:28.549Z,7.48
2019-03-09T01:21:30.124Z,7.51
2019-03-09T01:26:31.796Z,7.53
2019-03-09T01:31:33.359Z,7.54
2019-03-09T01:36:35.049Z,7.52
2019-03-09T01:41:36.729Z,7.54
2019-03-09T01:46:38.397Z,7.52
2019-03-09T01:51:39.957Z,7.51
2019-03-09T01:56:41.521Z,7.50
2019-03-09T02:01:43.319Z,7.50
2019-03-09T02:06:44.956Z,7.48
2019-03-09T02:11:46.509Z,7.44
2019-03-09T02:16:48.060Z,7.44
2019-03-09T02:21:49.611Z,7.46
2019-03-09T02:26:51.165Z,7.46
2019-03-09T02:31:52.791Z,7.48
2019-03-09T02:36:54.498Z,7.48
2019-03-09T02:41:56.155Z,7.47
2019-03-09T02:46:57.707Z,7.50
2019-03-09T02:51:59.361Z,7.51
2019-03-09T02:57:00.923Z,7.53
2019-03-09T03:02:14.777Z,7.51
2019-03-09T03:07:16.491Z,7.50
2019-03-09T03:12:18.054Z,7.53
2019-03-09T03:17:19.605Z,7.55
2019-03-09T03:22:21.149Z,7.59
2019-03-09T03:27:22.831Z,7.62
2019-03-09T03:32:26.284Z,7.64
2019-03-09T03:37:27.847Z,7.67
2019-03-09T03:42:29.408Z,7.66
2019-03-09T03:47:30.962Z,7.69
2019-03-09T03:52:32.529Z,7.69
2019-03-09T03:57:34.221Z,7.68
2019-03-09T04:02:35.807Z,7.67
2019-03-09T04:07:37.557Z,7.65
2019-03-09T04:12:39.235Z,7.64
2019-03-09T04:17:40.919Z,7.64
2019-03-09T04:22:42.528Z,7.62
2019-03-09T04:27:44.106Z,7.62
2019-03-09T04:32:45.655Z,7.62
2019-03-09T04:37:47.212Z,7.63
2019-03-09T04:42:50.009Z,7.58
2019-03-09T04:47:51.733Z,7.56
2019-03-09T04:52:53.290Z,7.55
2019-03-09T04:57:54.849Z,7.58
2019-03-09T05:02:56.500Z,7.54
2019-03-09T05:08:25.393Z,7.54
2019-03-09T05:13:33.177Z,7.61
2019-03-09T05:18:34.842Z,7.67
2019-03-09T05:23:36.389Z,7.64
2019-03-09T05:28:37.977Z,7.53
2019-03-09T05:33:39.573Z,7.50
2019-03-09T05:38:41.438Z,7.52
2019-03-09T05:43:43.013Z,7.52
2019-03-09T05:48:44.687Z,7.51
2019-03-09T05:53:46.245Z,7.48
2019-03-09T05:58:47.811Z,7.48
2019-03-09T06:03:51.850Z,7.44
2019-03-09T06:08:53.402Z,7.38
2019-03-09T06:13:54.945Z,7.27
2019-03-09T06:18:56.498Z,7.18
2019-03-09T06:23:58.046Z,7.22
2019-03-09T06:28:59.622Z,7.22
2019-03-09T06:34:01.166Z,7.20
2019-03-09T06:39:11.340Z,7.16
2019-03-09T06:44:13.148Z,7.12
2019-03-09T06:49:14.696Z,7.17
2019-03-09T06:54:16.340Z,7.23
2019-03-09T06:59:17.927Z,7.33
2019-03-09T07:04:19.489Z,7.40
2019-03-09T07:09:21.049Z,7.50
2019-03-09T07:15:19.595Z,7.68
2019-03-09T07:20:21.257Z,7.73
2019-03-09T07:25:22.821Z,7.68
2019-03-09T07:30:24.478Z,7.73
2019-03-09T07:35:26.159Z,7.89
2019-03-09T07:40:27.838Z,8.02
2019-03-09T07:45:29.480Z,8.27
2019-03-09T07:50:31.098Z,8.48
2019-03-09T07:55:32.651Z,8.60
2019-03-09T08:00:34.312Z,8.78
2019-03-09T08:05:35.904Z,8.85
2019-03-09T08:10:37.465Z,8.96
2019-03-09T08:15:39.116Z,8.90
2019-03-09T08:20:40.690Z,9.11
2019-03-09T08:25:42.418Z,9.09
2019-03-09T08:30:44.063Z,9.09
2019-03-09T08:35:45.646Z,9.12
2019-03-09T08:40:47.223Z,9.37
2019-03-09T08:45:48.918Z,9.11
2019-03-09T08:50:50.517Z,9.11
2019-03-09T08:55:52.187Z,9.36
2019-03-09T09:00:53.784Z,9.56
2019-03-09T09:05:55.447Z,9.76
2019-03-09T09:10:57.311Z,9.95
2019-03-09T09:15:59.094Z,9.98
2019-03-09T09:21:00.810Z,10.10
2019-03-09T09:26:02.514Z,10.38
2019-03-09T09:31:04.288Z,10.41
2019-03-09T09:36:06.010Z,10.53
2019-03-09T09:41:07.574Z,10.83
2019-03-09T09:46:13.918Z,11.15
2019-03-09T09:51:15.532Z,11.62
2019-03-09T09:56:17.132Z,11.14
2019-03-09T10:01:18.878Z,11.12
2019-03-09T10:06:20.537Z,11.36
2019-03-09T10:11:22.149Z,11.39
2019-03-09T10:16:23.891Z,11.47
2019-03-09T10:21:25.477Z,11.73
2019-03-09T10:26:27.179Z,11.90
2019-03-09T10:31:28.846Z,11.97
2019-03-09T10:36:30.580Z,12.14
2019-03-09T10:41:32.293Z,12.41
2019-03-09T10:46:33.864Z,12.18
2019-03-09T10:51:35.439Z,12.11
2019-03-09T10:56:37.114Z,12.25
2019-03-09T11:01:38.816Z,12.34
2019-03-09T11:06:40.501Z,12.57
2019-03-09T11:11:42.211Z,12.57
2019-03-09T11:16:43.904Z,12.51
2019-03-09T11:21:45.695Z,12.34
2019-03-09T11:26:47.746Z,12.14
2019-03-09T11:31:49.356Z,11.88
2019-03-09T11:36:50.979Z,12.01
2019-03-09T11:41:52.558Z,12.25
2019-03-09T11:46:54.249Z,12.52
2019-03-09T11:51:55.847Z,12.37
2019-03-09T11:56:57.557Z,11.72
2019-03-09T12:01:59.125Z,11.99
2019-03-09T12:07:00.698Z,12.08
2019-03-09T12:12:02.705Z,11.84
2019-03-09T12:17:04.436Z,11.75
2019-03-09T12:22:06.659Z,12.28
2019-03-09T12:27:09.429Z,12.69
2019-03-09T12:32:11.032Z,12.72
2019-03-09T12:37:12.834Z,12.43
2019-03-09T12:42:14.551Z,12.41
2019-03-09T12:47:16.286Z,12.60
2019-03-09T12:52:18.037Z,12.26
2019-03-09T12:57:19.639Z,11.87
2019-03-09T13:02:21.254Z,11.62
2019-03-09T13:07:22.860Z,11.57
2019-03-09T13:12:24.582Z,11.59
2019-03-09T13:17:26.194Z,11.51
2019-03-09T13:22:27.764Z,10.25
2019-03-09T13:27:29.351Z,9.51
2019-03-09T13:32:33.367Z,9.93
2019-03-09T13:37:34.523Z,10.07
2019-03-09T13:42:36.209Z,10.11
2019-03-09T13:47:37.830Z,10.28
2019-03-09T13:52:39.360Z,10.46
2019-03-09T13:57:41.484Z,10.58
2019-03-09T14:02:43.276Z,10.56
2019-03-09T14:07:44.866Z,10.80
2019-03-09T14:12:46.611Z,11.04
2019-03-09T14:17:48.271Z,11.13
2019-03-09T14:22:50.162Z,11.19
2019-03-09T14:27:51.925Z,11.21
2019-03-09T14:32:53.499Z,11.39
2019-03-09T14:37:55.086Z,11.61
2019-03-09T14:42:56.659Z,11.89
2019-03-09T14:47:58.217Z,12.08
2019-03-09T14:52:59.797Z,12.14
2019-03-09T14:58:01.488Z,12.29
2019-03-09T15:03:03.177Z,12.06
2019-03-09T15:08:04.737Z,12.01
2019-03-09T15:13:06.275Z,12.69
2019-03-09T15:18:07.862Z,12.95
2019-03-09T15:23:09.530Z,13.02
2019-03-09T15:28:11.191Z,13.30
2019-03-09T15:33:12.779Z,13.94
2019-03-09T15:38:14.355Z,13.68
2019-03-09T15:43:15.936Z,13.53
2019-03-09T15:48:17.781Z,13.64
2019-03-09T15:53:19.460Z,13.59
2019-03-09T15:58:21.115Z,13.64
2019-03-09T16:03:23.608Z,13.60
2019-03-09T16:08:25.151Z,12.80
2019-03-09T16:13:26.727Z,12.25
2019-03-09T16:24:22.226Z,11.80
2019-03-09T16:29:23.771Z,11.63
2019-03-09T16:34:25.342Z,11.47
2019-03-09T16:39:26.914Z,11.22
2019-03-09T16:44:28.491Z,11.14
2019-03-09T16:49:30.040Z,11.08
2019-03-09T16:54:31.774Z,11.05
2019-03-09T16:59:33.350Z,11.05
2019-03-09T17:04:34.914Z,11.02
2019-03-09T17:09:36.586Z,11.03
2019-03-09T17:14:38.267Z,10.96
2019-03-09T17:19:40.063Z,10.90
2019-03-09T17:24:41.855Z,10.83
2019-03-09T17:29:43.405Z,10.69
2019-03-09T17:34:44.993Z,10.29
2019-03-09T17:39:46.620Z,10.19
2019-03-09T17:44:48.213Z,10.22
2019-03-09T17:49:49.889Z,9.70
2019-03-09T17:54:51.547Z,9.11
2019-03-09T17:59:53.150Z,8.91
2019-03-09T18:04:54.722Z,8.69
2019-03-09T18:09:56.260Z,8.48
2019-03-09T18:14:57.808Z,8.30
2019-03-09T18:19:59.470Z,8.13
2019-03-09T18:25:01.480Z,7.96
2019-03-09T18:30:03.854Z,7.89
2019-03-09T18:35:06.046Z,7.76
2019-03-09T18:40:07.936Z,7.60
2019-03-09T18:45:11.575Z,7.51
2019-03-09T18:50:13.368Z,7.42
2019-03-09T18:55:15.124Z,7.51
2019-03-09T19:00:16.809Z,7.57
2019-03-09T19:05:18.593Z,7.61
2019-03-09T19:10:20.276Z,7.54
2019-03-09T19:15:21.921Z,7.41
2019-03-09T19:20:23.581Z,7.34
2019-03-09T19:25:25.237Z,7.29
2019-03-09T19:30:26.903Z,7.21
2019-03-09T19:35:28.458Z,7.17
2019-03-09T19:40:30.015Z,7.17
2019-03-09T19:45:31.568Z,7.09
2019-03-09T19:50:33.121Z,7.02
2019-03-09T19:55:34.755Z,6.95
2019-03-09T20:00:36.326Z,6.18
2019-03-09T20:05:37.906Z,6.31
2019-03-09T20:10:39.468Z,6.47
2019-03-09T20:15:41.135Z,6.51
2019-03-09T20:20:42.694Z,6.59
2019-03-09T20:25:44.393Z,6.64
2019-03-09T20:30:45.975Z,6.60
2019-03-09T20:35:47.559Z,6.58
2019-03-09T20:40:49.283Z,6.51
2019-03-09T20:45:50.912Z,6.49
2019-03-09T20:50:52.474Z,6.39
2019-03-09T20:55:54.021Z,6.34
2019-03-09T21:00:55.656Z,6.29
2019-03-09T21:05:57.269Z,6.25
2019-03-09T21:11:04.018Z,6.18
2019-03-09T21:16:02.496Z,6.16
2019-03-09T21:21:04.188Z,6.15
2019-03-09T21:26:05.735Z,6.17
2019-03-09T21:31:07.301Z,6.06
2019-03-09T21:36:08.882Z,6.07
2019-03-09T21:41:10.587Z,5.99
2019-03-09T21:46:12.146Z,5.94
2019-03-09T21:51:13.826Z,5.93
2019-03-09T21:56:15.446Z,6.01
2019-03-09T22:01:17.006Z,5.93
2019-03-09T22:06:18.690Z,5.85
2019-03-09T22:11:20.240Z,5.83
2019-03-09T22:16:21.805Z,5.83
2019-03-09T22:21:23.349Z,5.83
2019-03-09T22:26:24.919Z,5.79
2019-03-09T22:31:26.467Z,5.68
2019-03-09T22:36:28.046Z,5.70
2019-03-09T22:41:29.631Z,5.65
2019-03-09T22:46:31.195Z,5.64
2019-03-09T22:51:32.743Z,5.56
2019-03-09T22:56:34.290Z,5.46
2019-03-09T23:01:35.963Z,5.45
2019-03-09T23:06:37.528Z,5.30
2019-03-09T23:11:39.162Z,5.23
2019-03-09T23:16:40.693Z,5.20
2019-03-09T23:21:42.453Z,5.19
2019-03-09T23:26:44.109Z,5.08
2019-03-09T23:31:45.651Z,4.99
2019-03-09T23:36:47.301Z,4.99
2019-03-09T23:41:48.975Z,4.97
2019-03-09T23:46:50.548Z,4.85
2019-03-09T23:51:52.198Z,4.85
2019-03-09T23:56:53.899Z,4.86
